sensor_id;sensor_type;location;lat;lon;timestamp;pressure;altitude;pressure_sealevel;temperature;humidity
13593;BME280;6867;50.998;4.250;2023-05-24T00:02:21;102234.72;;;8.77;79.96
13593;BME280;6867;50.998;4.250;2023-05-24T00:04:51;102228.38;;;8.78;80.39
13593;BME280;6867;50.998;4.250;2023-05-24T00:07:18;102226.00;;;8.75;80.32
13593;BME280;6867;50.998;4.250;2023-05-24T00:09:46;102215.94;;;8.77;80.18
13593;BME280;6867;50.998;4.250;2023-05-24T00:12:13;102220.13;;;8.71;80.21
13593;BME280;6867;50.998;4.250;2023-05-24T00:14:39;102211.25;;;8.71;80.29
13593;BME280;6867;50.998;4.250;2023-05-24T00:17:06;102203.47;;;8.60;79.70
13593;BME280;6867;50.998;4.250;2023-05-24T00:19:33;102221.34;;;8.51;80.51
13593;BME280;6867;50.998;4.250;2023-05-24T00:22:02;102218.66;;;8.51;80.04
13593;BME280;6867;50.998;4.250;2023-05-24T00:24:29;102222.66;;;8.47;81.13
13593;BME280;6867;50.998;4.250;2023-05-24T00:26:57;102226.03;;;8.49;81.50
13593;BME280;6867;50.998;4.250;2023-05-24T00:29:25;102213.78;;;8.46;80.95
13593;BME280;6867;50.998;4.250;2023-05-24T00:31:51;102223.44;;;8.39;81.11
13593;BME280;6867;50.998;4.250;2023-05-24T00:34:19;102220.16;;;8.45;80.82
13593;BME280;6867;50.998;4.250;2023-05-24T00:36:45;102214.28;;;8.42;81.53
13593;BME280;6867;50.998;4.250;2023-05-24T00:39:12;102205.53;;;8.40;81.25
13593;BME280;6867;50.998;4.250;2023-05-24T00:41:39;102202.56;;;8.43;80.83
13593;BME280;6867;50.998;4.250;2023-05-24T00:44:07;102202.72;;;8.41;80.43
13593;BME280;6867;50.998;4.250;2023-05-24T00:46:35;102213.97;;;8.45;81.10
13593;BME280;6867;50.998;4.250;2023-05-24T00:49:02;102204.41;;;8.42;81.05
13593;BME280;6867;50.998;4.250;2023-05-24T00:51:29;102203.47;;;8.34;80.64
13593;BME280;6867;50.998;4.250;2023-05-24T00:53:56;102204.09;;;8.28;81.04
13593;BME280;6867;50.998;4.250;2023-05-24T00:56:24;102207.47;;;8.30;81.22
13593;BME280;6867;50.998;4.250;2023-05-24T00:58:51;102195.22;;;8.27;81.28
13593;BME280;6867;50.998;4.250;2023-05-24T01:01:20;102195.09;;;8.29;80.92
13593;BME280;6867;50.998;4.250;2023-05-24T01:03:50;102193.56;;;8.26;81.19
13593;BME280;6867;50.998;4.250;2023-05-24T01:06:18;102193.03;;;8.40;80.79
13593;BME280;6867;50.998;4.250;2023-05-24T01:08:56;102192.59;;;8.53;80.45
13593;BME280;6867;50.998;4.250;2023-05-24T01:11:34;102194.03;;;8.47;80.05
13593;BME280;6867;50.998;4.250;2023-05-24T01:14:11;102189.69;;;8.46;80.27
13593;BME280;6867;50.998;4.250;2023-05-24T01:16:46;102192.53;;;8.45;80.93
13593;BME280;6867;50.998;4.250;2023-05-24T01:19:47;102194.75;;;8.50;80.16
13593;BME280;6867;50.998;4.250;2023-05-24T01:22:28;102189.53;;;8.48;79.59
13593;BME280;6867;50.998;4.250;2023-05-24T01:25:03;102196.88;;;8.46;79.64
13593;BME280;6867;50.998;4.250;2023-05-24T01:27:36;102194.88;;;8.48;79.98
13593;BME280;6867;50.998;4.250;2023-05-24T01:30:04;102183.81;;;8.43;79.75
13593;BME280;6867;50.998;4.250;2023-05-24T01:32:32;102183.50;;;8.46;79.08
13593;BME280;6867;50.998;4.250;2023-05-24T01:34:59;102172.56;;;8.39;79.35
13593;BME280;6867;50.998;4.250;2023-05-24T01:37:26;102172.19;;;8.34;79.47
13593;BME280;6867;50.998;4.250;2023-05-24T01:39:53;102172.84;;;8.28;79.60
13593;BME280;6867;50.998;4.250;2023-05-24T01:42:24;102172.44;;;8.23;79.60
13593;BME280;6867;50.998;4.250;2023-05-24T01:45:03;102176.97;;;8.22;79.97
13593;BME280;6867;50.998;4.250;2023-05-24T01:47:41;102167.72;;;8.17;79.94
13593;BME280;6867;50.998;4.250;2023-05-24T01:50:16;102160.38;;;8.19;79.89
13593;BME280;6867;50.998;4.250;2023-05-24T01:52:45;102157.50;;;8.12;79.98
13593;BME280;6867;50.998;4.250;2023-05-24T01:55:16;102157.63;;;8.11;79.59
13593;BME280;6867;50.998;4.250;2023-05-24T01:57:45;102153.94;;;8.04;79.69
13593;BME280;6867;50.998;4.250;2023-05-24T02:00:16;102153.56;;;7.98;79.36
13593;BME280;6867;50.998;4.250;2023-05-24T02:02:43;102157.88;;;7.91;80.20
13593;BME280;6867;50.998;4.250;2023-05-24T02:05:10;102170.25;;;7.92;80.92
13593;BME280;6867;50.998;4.250;2023-05-24T02:07:37;102167.25;;;7.95;80.09
13593;BME280;6867;50.998;4.250;2023-05-24T02:10:06;102167.03;;;7.89;80.17
13593;BME280;6867;50.998;4.250;2023-05-24T02:12:33;102169.81;;;7.79;80.18
13593;BME280;6867;50.998;4.250;2023-05-24T02:14:59;102173.38;;;7.88;80.31
13593;BME280;6867;50.998;4.250;2023-05-24T02:17:27;102169.16;;;7.85;80.30
13593;BME280;6867;50.998;4.250;2023-05-24T02:19:57;102164.00;;;7.84;80.29
13593;BME280;6867;50.998;4.250;2023-05-24T02:22:24;102160.94;;;7.79;80.16
13593;BME280;6867;50.998;4.250;2023-05-24T02:24:51;102149.25;;;7.80;79.73
13593;BME280;6867;50.998;4.250;2023-05-24T02:27:17;102152.38;;;7.75;79.63
13593;BME280;6867;50.998;4.250;2023-05-24T02:29:44;102147.63;;;7.69;80.04
13593;BME280;6867;50.998;4.250;2023-05-24T02:32:11;102151.94;;;7.62;80.25
13593;BME280;6867;50.998;4.250;2023-05-24T02:34:40;102161.81;;;7.61;80.77
13593;BME280;6867;50.998;4.250;2023-05-24T02:37:08;102165.63;;;7.59;80.54
13593;BME280;6867;50.998;4.250;2023-05-24T02:39:38;102162.31;;;7.65;81.02
13593;BME280;6867;50.998;4.250;2023-05-24T02:42:05;102150.94;;;7.63;80.16
13593;BME280;6867;50.998;4.250;2023-05-24T02:44:33;102143.56;;;7.57;80.14
13593;BME280;6867;50.998;4.250;2023-05-24T02:46:59;102139.34;;;7.54;80.12
13593;BME280;6867;50.998;4.250;2023-05-24T02:49:26;102138.81;;;7.51;80.10
13593;BME280;6867;50.998;4.250;2023-05-24T02:51:54;102132.78;;;7.48;79.65
13593;BME280;6867;50.998;4.250;2023-05-24T02:54:21;102149.59;;;7.41;79.70
13593;BME280;6867;50.998;4.250;2023-05-24T02:56:48;102150.59;;;7.40;79.85
13593;BME280;6867;50.998;4.250;2023-05-24T02:59:14;102155.53;;;7.35;80.00
13593;BME280;6867;50.998;4.250;2023-05-24T03:01:41;102160.03;;;7.34;80.33
13593;BME280;6867;50.998;4.250;2023-05-24T03:04:08;102159.38;;;7.32;80.53
13593;BME280;6867;50.998;4.250;2023-05-24T03:06:35;102163.19;;;7.30;80.64
13593;BME280;6867;50.998;4.250;2023-05-24T03:09:03;102163.56;;;7.35;80.51
13593;BME280;6867;50.998;4.250;2023-05-24T03:11:30;102170.19;;;7.31;81.13
13593;BME280;6867;50.998;4.250;2023-05-24T03:13:56;102170.56;;;7.18;80.75
13593;BME280;6867;50.998;4.250;2023-05-24T03:16:23;102165.00;;;7.11;81.16
13593;BME280;6867;50.998;4.250;2023-05-24T03:18:50;102162.19;;;7.13;80.97
13593;BME280;6867;50.998;4.250;2023-05-24T03:21:19;102157.84;;;7.12;80.96
13593;BME280;6867;50.998;4.250;2023-05-24T03:23:47;102157.97;;;7.10;80.95
13593;BME280;6867;50.998;4.250;2023-05-24T03:26:15;102162.78;;;7.07;80.80
13593;BME280;6867;50.998;4.250;2023-05-24T03:28:43;102156.59;;;7.06;80.95
13593;BME280;6867;50.998;4.250;2023-05-24T03:31:10;102165.38;;;6.98;81.35
13593;BME280;6867;50.998;4.250;2023-05-24T03:33:36;102161.25;;;7.04;81.28
13593;BME280;6867;50.998;4.250;2023-05-24T03:36:04;102159.03;;;6.99;81.08
13593;BME280;6867;50.998;4.250;2023-05-24T03:38:30;102167.63;;;6.93;80.72
13593;BME280;6867;50.998;4.250;2023-05-24T03:40:58;102168.19;;;6.97;80.68
13593;BME280;6867;50.998;4.250;2023-05-24T03:43:26;102168.81;;;7.09;80.72
13593;BME280;6867;50.998;4.250;2023-05-24T03:45:52;102164.19;;;7.11;80.68
13593;BME280;6867;50.998;4.250;2023-05-24T03:48:19;102163.09;;;7.21;80.52
13593;BME280;6867;50.998;4.250;2023-05-24T03:50:46;102150.19;;;7.17;80.12
13593;BME280;6867;50.998;4.250;2023-05-24T03:53:13;102154.88;;;7.15;80.49
13593;BME280;6867;50.998;4.250;2023-05-24T03:55:39;102163.63;;;7.07;81.09
13593;BME280;6867;50.998;4.250;2023-05-24T03:58:06;102168.97;;;7.07;81.13
13593;BME280;6867;50.998;4.250;2023-05-24T04:00:34;102177.53;;;7.11;81.46
13593;BME280;6867;50.998;4.250;2023-05-24T04:03:01;102178.38;;;7.11;81.39
13593;BME280;6867;50.998;4.250;2023-05-24T04:05:28;102179.97;;;7.22;81.41
13593;BME280;6867;50.998;4.250;2023-05-24T04:07:54;102171.91;;;7.32;81.16
13593;BME280;6867;50.998;4.250;2023-05-24T04:10:21;102155.31;;;7.28;80.94
13593;BME280;6867;50.998;4.250;2023-05-24T04:12:48;102162.50;;;7.28;81.13
13593;BME280;6867;50.998;4.250;2023-05-24T04:15:15;102168.22;;;7.33;81.50
13593;BME280;6867;50.998;4.250;2023-05-24T04:17:44;102168.44;;;7.39;81.44
13593;BME280;6867;50.998;4.250;2023-05-24T04:20:11;102170.91;;;7.51;81.16
13593;BME280;6867;50.998;4.250;2023-05-24T04:22:38;102163.47;;;7.62;81.43
13593;BME280;6867;50.998;4.250;2023-05-24T04:25:06;102153.69;;;7.71;80.41
13593;BME280;6867;50.998;4.250;2023-05-24T04:27:34;102164.47;;;7.79;80.32
13593;BME280;6867;50.998;4.250;2023-05-24T04:30:00;102162.97;;;7.85;80.34
13593;BME280;6867;50.998;4.250;2023-05-24T04:32:27;102170.25;;;7.92;80.66
13593;BME280;6867;50.998;4.250;2023-05-24T04:34:56;102170.00;;;8.04;81.20
13593;BME280;6867;50.998;4.250;2023-05-24T04:37:22;102176.53;;;8.09;80.89
13593;BME280;6867;50.998;4.250;2023-05-24T04:39:49;102180.47;;;8.23;81.03
13593;BME280;6867;50.998;4.250;2023-05-24T04:42:16;102191.75;;;8.35;80.90
13593;BME280;6867;50.998;4.250;2023-05-24T04:44:42;102188.69;;;8.47;81.17
13593;BME280;6867;50.998;4.250;2023-05-24T04:47:10;102199.31;;;8.57;81.28
13593;BME280;6867;50.998;4.250;2023-05-24T04:49:37;102195.69;;;8.75;81.07
13593;BME280;6867;50.998;4.250;2023-05-24T04:52:06;102204.28;;;8.86;80.47
13593;BME280;6867;50.998;4.250;2023-05-24T04:54:32;102194.09;;;8.98;80.56
13593;BME280;6867;50.998;4.250;2023-05-24T04:56:59;102201.00;;;9.09;80.90
13593;BME280;6867;50.998;4.250;2023-05-24T04:59:26;102187.59;;;9.09;80.29
13593;BME280;6867;50.998;4.250;2023-05-24T05:01:52;102202.03;;;9.16;81.37
13593;BME280;6867;50.998;4.250;2023-05-24T05:04:19;102201.09;;;9.41;81.18
13593;BME280;6867;50.998;4.250;2023-05-24T05:06:46;102202.59;;;9.60;81.27
13593;BME280;6867;50.998;4.250;2023-05-24T05:09:15;102194.44;;;9.78;80.63
13593;BME280;6867;50.998;4.250;2023-05-24T05:11:41;102187.69;;;9.90;80.59
13593;BME280;6867;50.998;4.250;2023-05-24T05:14:08;102184.34;;;9.96;79.96
13593;BME280;6867;50.998;4.250;2023-05-24T05:16:36;102202.09;;;10.14;80.80
13593;BME280;6867;50.998;4.250;2023-05-24T05:19:03;102210.66;;;10.42;80.74
13593;BME280;6867;50.998;4.250;2023-05-24T05:21:30;102212.63;;;10.48;80.63
13593;BME280;6867;50.998;4.250;2023-05-24T05:23:58;102216.00;;;10.50;80.24
13593;BME280;6867;50.998;4.250;2023-05-24T05:26:27;102222.47;;;10.80;80.58
13593;BME280;6867;50.998;4.250;2023-05-24T05:28:53;102216.72;;;10.91;80.46
13593;BME280;6867;50.998;4.250;2023-05-24T05:31:20;102218.66;;;11.06;80.44
13593;BME280;6867;50.998;4.250;2023-05-24T05:33:47;102218.56;;;11.22;80.55
13593;BME280;6867;50.998;4.250;2023-05-24T05:36:14;102227.25;;;11.32;80.31
13593;BME280;6867;50.998;4.250;2023-05-24T05:38:40;102222.84;;;11.39;80.47
13593;BME280;6867;50.998;4.250;2023-05-24T05:41:07;102218.44;;;11.46;80.43
13593;BME280;6867;50.998;4.250;2023-05-24T05:43:35;102208.44;;;11.55;80.02
13593;BME280;6867;50.998;4.250;2023-05-24T05:46:02;102228.84;;;11.72;80.31
13593;BME280;6867;50.998;4.250;2023-05-24T05:48:28;102226.69;;;11.91;80.04
13593;BME280;6867;50.998;4.250;2023-05-24T05:50:55;102220.34;;;12.07;79.80
13593;BME280;6867;50.998;4.250;2023-05-24T05:53:22;102214.16;;;12.21;79.53
13593;BME280;6867;50.998;4.250;2023-05-24T05:55:49;102207.47;;;12.32;79.82
13593;BME280;6867;50.998;4.250;2023-05-24T05:58:16;102199.56;;;12.45;79.31
13593;BME280;6867;50.998;4.250;2023-05-24T06:00:44;102199.13;;;12.71;79.23
13593;BME280;6867;50.998;4.250;2023-05-24T06:03:11;102178.66;;;12.62;78.05
13593;BME280;6867;50.998;4.250;2023-05-24T06:05:37;102193.19;;;12.76;77.71
13593;BME280;6867;50.998;4.250;2023-05-24T06:08:04;102199.66;;;12.96;77.98
13593;BME280;6867;50.998;4.250;2023-05-24T06:10:31;102187.91;;;13.04;76.59
13593;BME280;6867;50.998;4.250;2023-05-24T06:12:57;102177.56;;;13.22;75.81
13593;BME280;6867;50.998;4.250;2023-05-24T06:15:24;102145.09;;;13.30;73.35
13593;BME280;6867;50.998;4.250;2023-05-24T06:17:52;102165.19;;;13.49;74.16
13593;BME280;6867;50.998;4.250;2023-05-24T06:20:19;102175.69;;;13.59;74.14
13593;BME280;6867;50.998;4.250;2023-05-24T06:22:46;102181.22;;;13.79;73.67
13593;BME280;6867;50.998;4.250;2023-05-24T06:25:15;102173.16;;;14.07;73.28
13593;BME280;6867;50.998;4.250;2023-05-24T06:27:45;102176.63;;;14.57;72.33
13593;BME280;6867;50.998;4.250;2023-05-24T06:30:12;102152.84;;;14.87;70.73
13593;BME280;6867;50.998;4.250;2023-05-24T06:32:39;102133.81;;;15.22;69.09
13593;BME280;6867;50.998;4.250;2023-05-24T06:35:08;102087.78;;;15.35;66.58
13593;BME280;6867;50.998;4.250;2023-05-24T06:37:35;102064.88;;;15.71;64.73
13593;BME280;6867;50.998;4.250;2023-05-24T06:40:04;102065.00;;;16.22;63.52
13593;BME280;6867;50.998;4.250;2023-05-24T06:42:32;101983.25;;;16.18;60.43
13593;BME280;6867;50.998;4.250;2023-05-24T06:44:59;101999.97;;;16.54;59.95
13593;BME280;6867;50.998;4.250;2023-05-24T06:47:25;101972.81;;;17.17;57.84
13593;BME280;6867;50.998;4.250;2023-05-24T06:49:52;101933.84;;;17.30;56.35
13593;BME280;6867;50.998;4.250;2023-05-24T06:52:20;101973.75;;;17.29;56.79
13593;BME280;6867;50.998;4.250;2023-05-24T06:54:47;101959.88;;;17.99;55.39
13593;BME280;6867;50.998;4.250;2023-05-24T06:57:14;101956.03;;;17.88;54.62
13593;BME280;6867;50.998;4.250;2023-05-24T06:59:41;101936.66;;;17.85;53.82
13593;BME280;6867;50.998;4.250;2023-05-24T07:02:09;101940.97;;;18.23;53.22
13593;BME280;6867;50.998;4.250;2023-05-24T07:04:35;101904.31;;;17.58;52.67
13593;BME280;6867;50.998;4.250;2023-05-24T07:07:05;101920.13;;;18.16;52.21
13593;BME280;6867;50.998;4.250;2023-05-24T07:09:33;101947.69;;;18.20;52.27
13593;BME280;6867;50.998;4.250;2023-05-24T07:12:00;101922.13;;;17.91;52.28
13593;BME280;6867;50.998;4.250;2023-05-24T07:14:27;101926.25;;;18.42;51.70
13593;BME280;6867;50.998;4.250;2023-05-24T07:16:54;101904.59;;;18.35;51.17
13593;BME280;6867;50.998;4.250;2023-05-24T07:19:24;101924.28;;;18.61;51.20
13593;BME280;6867;50.998;4.250;2023-05-24T07:21:53;101912.97;;;18.76;50.53
13593;BME280;6867;50.998;4.250;2023-05-24T07:24:20;101940.41;;;18.02;51.68
13593;BME280;6867;50.998;4.250;2023-05-24T07:26:50;101961.34;;;18.32;51.58
13593;BME280;6867;50.998;4.250;2023-05-24T07:29:17;101929.66;;;18.07;51.30
13593;BME280;6867;50.998;4.250;2023-05-24T07:31:45;101953.72;;;18.52;51.42
13593;BME280;6867;50.998;4.250;2023-05-24T07:34:12;101957.03;;;18.96;50.86
13593;BME280;6867;50.998;4.250;2023-05-24T07:36:39;101948.75;;;19.26;50.55
13593;BME280;6867;50.998;4.250;2023-05-24T07:39:06;101953.03;;;19.57;50.29
13593;BME280;6867;50.998;4.250;2023-05-24T07:41:34;101897.72;;;19.33;49.05
13593;BME280;6867;50.998;4.250;2023-05-24T07:44:03;101889.97;;;19.77;48.26
13593;BME280;6867;50.998;4.250;2023-05-24T07:46:29;101827.66;;;19.69;47.45
13593;BME280;6867;50.998;4.250;2023-05-24T07:48:57;101852.94;;;19.29;47.70
13593;BME280;6867;50.998;4.250;2023-05-24T07:51:23;101893.22;;;18.80;49.24
13593;BME280;6867;50.998;4.250;2023-05-24T07:53:51;101824.34;;;18.80;47.55
13593;BME280;6867;50.998;4.250;2023-05-24T07:56:18;101860.56;;;19.04;47.72
13593;BME280;6867;50.998;4.250;2023-05-24T07:58:44;101894.53;;;19.25;47.94
13593;BME280;6867;50.998;4.250;2023-05-24T08:01:13;101838.06;;;19.20;46.84
13593;BME280;6867;50.998;4.250;2023-05-24T08:03:40;101868.25;;;19.82;46.72
13593;BME280;6867;50.998;4.250;2023-05-24T08:06:07;101832.03;;;19.70;46.10
13593;BME280;6867;50.998;4.250;2023-05-24T08:08:35;101836.06;;;19.96;46.08
13593;BME280;6867;50.998;4.250;2023-05-24T08:11:02;101840.69;;;19.67;46.16
13593;BME280;6867;50.998;4.250;2023-05-24T08:13:29;101839.56;;;20.54;45.04
13593;BME280;6867;50.998;4.250;2023-05-24T08:15:55;101757.91;;;20.52;43.31
13593;BME280;6867;50.998;4.250;2023-05-24T08:18:24;101783.84;;;21.10;43.05
13593;BME280;6867;50.998;4.250;2023-05-24T08:20:51;101777.06;;;21.84;41.89
13593;BME280;6867;50.998;4.250;2023-05-24T08:23:18;101749.78;;;21.62;41.69
13593;BME280;6867;50.998;4.250;2023-05-24T08:25:44;101741.72;;;21.28;42.04
13593;BME280;6867;50.998;4.250;2023-05-24T08:28:11;101749.19;;;21.60;41.44
13593;BME280;6867;50.998;4.250;2023-05-24T08:30:38;101664.94;;;20.81;40.73
13593;BME280;6867;50.998;4.250;2023-05-24T08:33:05;101693.28;;;20.75;40.72
13593;BME280;6867;50.998;4.250;2023-05-24T08:35:33;101713.41;;;21.34;40.70
13593;BME280;6867;50.998;4.250;2023-05-24T08:38:00;101686.25;;;21.06;40.33
13593;BME280;6867;50.998;4.250;2023-05-24T08:40:26;101680.81;;;21.06;40.09
13593;BME280;6867;50.998;4.250;2023-05-24T08:42:54;101713.94;;;21.14;40.44
13593;BME280;6867;50.998;4.250;2023-05-24T08:45:23;101758.69;;;21.08;41.45
13593;BME280;6867;50.998;4.250;2023-05-24T08:47:51;101733.72;;;20.78;41.39
13593;BME280;6867;50.998;4.250;2023-05-24T08:50:19;101777.88;;;21.13;41.56
13593;BME280;6867;50.998;4.250;2023-05-24T08:52:48;101743.56;;;21.72;40.41
13593;BME280;6867;50.998;4.250;2023-05-24T08:55:15;101760.88;;;22.36;39.85
13593;BME280;6867;50.998;4.250;2023-05-24T08:57:44;101667.88;;;21.77;38.80
13593;BME280;6867;50.998;4.250;2023-05-24T09:00:12;101706.06;;;21.18;40.34
13593;BME280;6867;50.998;4.250;2023-05-24T09:02:39;101744.38;;;22.31;39.38
13593;BME280;6867;50.998;4.250;2023-05-24T09:05:09;101712.78;;;22.56;38.69
13593;BME280;6867;50.998;4.250;2023-05-24T09:07:36;101694.31;;;22.83;38.12
13593;BME280;6867;50.998;4.250;2023-05-24T09:10:07;101686.00;;;22.63;38.20
13593;BME280;6867;50.998;4.250;2023-05-24T09:12:36;101706.56;;;22.23;39.24
13593;BME280;6867;50.998;4.250;2023-05-24T09:15:04;101693.25;;;22.05;38.88
13593;BME280;6867;50.998;4.250;2023-05-24T09:17:33;101713.31;;;22.95;38.20
13593;BME280;6867;50.998;4.250;2023-05-24T09:20:00;101732.41;;;23.63;37.87
13593;BME280;6867;50.998;4.250;2023-05-24T09:22:27;101734.09;;;24.10;37.13
13593;BME280;6867;50.998;4.250;2023-05-24T09:24:57;101752.19;;;24.52;37.14
13593;BME280;6867;50.998;4.250;2023-05-24T09:27:25;101660.56;;;23.76;36.45
13593;BME280;6867;50.998;4.250;2023-05-24T09:29:52;101621.84;;;23.57;35.88
13593;BME280;6867;50.998;4.250;2023-05-24T09:32:21;101710.44;;;23.53;37.28
13593;BME280;6867;50.998;4.250;2023-05-24T09:34:51;101697.81;;;23.47;37.13
13593;BME280;6867;50.998;4.250;2023-05-24T09:37:19;101547.63;;;21.45;37.42
13593;BME280;6867;50.998;4.250;2023-05-24T09:39:47;101616.97;;;21.12;38.83
13593;BME280;6867;50.998;4.250;2023-05-24T09:42:16;101744.44;;;20.84;41.47
13593;BME280;6867;50.998;4.250;2023-05-24T09:44:47;101702.88;;;21.48;39.47
13593;BME280;6867;50.998;4.250;2023-05-24T09:47:14;101677.94;;;21.18;39.42
13593;BME280;6867;50.998;4.250;2023-05-24T09:49:40;101681.09;;;20.82;39.79
13593;BME280;6867;50.998;4.250;2023-05-24T09:52:12;101658.88;;;20.18;39.86
13593;BME280;6867;50.998;4.250;2023-05-24T09:54:39;101726.97;;;20.47;40.93
13593;BME280;6867;50.998;4.250;2023-05-24T09:57:07;101734.50;;;20.95;40.49
13593;BME280;6867;50.998;4.250;2023-05-24T09:59:34;101693.19;;;21.35;39.05
13593;BME280;6867;50.998;4.250;2023-05-24T10:02:09;101710.63;;;21.07;39.88
13593;BME280;6867;50.998;4.250;2023-05-24T10:04:36;101723.31;;;20.75;40.30
13593;BME280;6867;50.998;4.250;2023-05-24T10:07:04;101721.00;;;20.67;40.41
13593;BME280;6867;50.998;4.250;2023-05-24T10:09:31;101716.78;;;20.59;40.48
13593;BME280;6867;50.998;4.250;2023-05-24T10:12:01;101742.69;;;21.39;39.70
13593;BME280;6867;50.998;4.250;2023-05-24T10:14:30;101719.66;;;22.16;38.64
13593;BME280;6867;50.998;4.250;2023-05-24T10:16:58;101642.03;;;21.58;38.11
13593;BME280;6867;50.998;4.250;2023-05-24T10:19:26;101688.56;;;21.95;38.29
13593;BME280;6867;50.998;4.250;2023-05-24T10:21:54;101676.38;;;21.81;38.55
13593;BME280;6867;50.998;4.250;2023-05-24T10:24:25;101704.50;;;22.41;38.25
13593;BME280;6867;50.998;4.250;2023-05-24T10:26:53;101653.16;;;22.68;36.89
13593;BME280;6867;50.998;4.250;2023-05-24T10:29:40;101616.53;;;22.27;37.01
13593;BME280;6867;50.998;4.250;2023-05-24T10:32:10;101662.31;;;21.99;37.98
13593;BME280;6867;50.998;4.250;2023-05-24T10:34:40;101659.28;;;21.96;38.05
13593;BME280;6867;50.998;4.250;2023-05-24T10:37:09;101617.06;;;21.22;38.44
13593;BME280;6867;50.998;4.250;2023-05-24T10:39:35;101684.97;;;21.35;39.23
13593;BME280;6867;50.998;4.250;2023-05-24T10:42:03;101717.63;;;21.47;39.46
13593;BME280;6867;50.998;4.250;2023-05-24T10:44:31;101709.72;;;22.10;38.51
13593;BME280;6867;50.998;4.250;2023-05-24T10:47:02;101635.88;;;21.78;37.94
13593;BME280;6867;50.998;4.250;2023-05-24T10:49:29;101688.91;;;22.41;37.89
13593;BME280;6867;50.998;4.250;2023-05-24T10:52:01;101770.19;;;22.41;39.63
13593;BME280;6867;50.998;4.250;2023-05-24T10:54:28;101740.91;;;22.09;39.82
13593;BME280;6867;50.998;4.250;2023-05-24T10:56:59;101669.53;;;21.78;38.64
13593;BME280;6867;50.998;4.250;2023-05-24T10:59:30;101698.63;;;21.35;39.71
13593;BME280;6867;50.998;4.250;2023-05-24T11:01:59;101728.75;;;22.27;38.97
13593;BME280;6867;50.998;4.250;2023-05-24T11:04:32;101627.06;;;22.45;37.01
13593;BME280;6867;50.998;4.250;2023-05-24T11:07:05;101645.91;;;22.42;37.17
13593;BME280;6867;50.998;4.250;2023-05-24T11:09:34;101657.38;;;21.64;38.89
13593;BME280;6867;50.998;4.250;2023-05-24T11:12:02;101701.56;;;21.29;39.80
13593;BME280;6867;50.998;4.250;2023-05-24T11:14:33;101724.34;;;21.94;39.42
13593;BME280;6867;50.998;4.250;2023-05-24T11:17:01;101691.81;;;22.24;38.27
13593;BME280;6867;50.998;4.250;2023-05-24T11:19:30;101709.88;;;22.78;37.85
13593;BME280;6867;50.998;4.250;2023-05-24T11:21:58;101637.13;;;21.65;38.40
13593;BME280;6867;50.998;4.250;2023-05-24T11:24:27;101674.16;;;21.46;39.16
13593;BME280;6867;50.998;4.250;2023-05-24T11:26:54;101662.56;;;21.33;38.93
13593;BME280;6867;50.998;4.250;2023-05-24T11:29:22;101690.66;;;21.56;39.05
13593;BME280;6867;50.998;4.250;2023-05-24T11:31:50;101658.59;;;21.46;38.99
13593;BME280;6867;50.998;4.250;2023-05-24T11:34:17;101639.63;;;21.99;37.72
13593;BME280;6867;50.998;4.250;2023-05-24T11:36:44;101696.00;;;22.05;38.60
13593;BME280;6867;50.998;4.250;2023-05-24T11:39:12;101597.09;;;21.86;37.02
13593;BME280;6867;50.998;4.250;2023-05-24T11:41:40;101688.19;;;22.19;38.13
13593;BME280;6867;50.998;4.250;2023-05-24T11:44:08;101678.13;;;22.77;37.24
13593;BME280;6867;50.998;4.250;2023-05-24T11:46:36;101576.41;;;22.53;36.16
13593;BME280;6867;50.998;4.250;2023-05-24T11:49:04;101581.28;;;23.14;35.03
13593;BME280;6867;50.998;4.250;2023-05-24T11:51:33;101649.53;;;23.41;36.52
13593;BME280;6867;50.998;4.250;2023-05-24T11:54:00;101561.59;;;22.44;35.93
13593;BME280;6867;50.998;4.250;2023-05-24T11:56:29;101614.28;;;22.66;36.39
13593;BME280;6867;50.998;4.250;2023-05-24T11:59:04;101595.81;;;23.24;35.24
13593;BME280;6867;50.998;4.250;2023-05-24T12:01:34;101602.34;;;24.10;34.21
13593;BME280;6867;50.998;4.250;2023-05-24T12:04:04;101552.75;;;23.60;34.06
13593;BME280;6867;50.998;4.250;2023-05-24T12:06:34;101547.47;;;22.67;35.21
13593;BME280;6867;50.998;4.250;2023-05-24T12:09:01;101536.63;;;22.20;35.70
13593;BME280;6867;50.998;4.250;2023-05-24T12:11:30;101615.47;;;22.91;36.33
13593;BME280;6867;50.998;4.250;2023-05-24T12:13:58;101733.28;;;23.84;37.08
13593;BME280;6867;50.998;4.250;2023-05-24T12:16:26;101452.72;;;23.27;33.20
13593;BME280;6867;50.998;4.250;2023-05-24T12:18:56;101541.25;;;23.23;34.38
13593;BME280;6867;50.998;4.250;2023-05-24T12:21:23;101539.06;;;23.45;34.36
13593;BME280;6867;50.998;4.250;2023-05-24T12:23:50;101570.47;;;24.29;33.11
13593;BME280;6867;50.998;4.250;2023-05-24T12:26:17;101502.81;;;22.82;34.88
13593;BME280;6867;50.998;4.250;2023-05-24T12:28:44;101553.50;;;22.84;35.10
13593;BME280;6867;50.998;4.250;2023-05-24T12:31:14;101625.28;;;22.86;36.33
13593;BME280;6867;50.998;4.250;2023-05-24T12:33:41;101608.41;;;23.30;35.71
13593;BME280;6867;50.998;4.250;2023-05-24T12:36:09;101568.94;;;23.52;34.77
13593;BME280;6867;50.998;4.250;2023-05-24T12:38:35;101555.22;;;23.36;34.59
13593;BME280;6867;50.998;4.250;2023-05-24T12:41:02;101633.06;;;23.15;36.40
13593;BME280;6867;50.998;4.250;2023-05-24T12:43:30;101597.75;;;22.46;36.97
13593;BME280;6867;50.998;4.250;2023-05-24T12:45:57;101628.50;;;22.63;37.11
13593;BME280;6867;50.998;4.250;2023-05-24T12:48:25;101672.56;;;23.29;37.17
13593;BME280;6867;50.998;4.250;2023-05-24T12:50:52;101647.91;;;23.34;36.44
13593;BME280;6867;50.998;4.250;2023-05-24T12:53:19;101590.59;;;23.48;35.80
13593;BME280;6867;50.998;4.250;2023-05-24T12:55:48;101507.81;;;22.90;34.84
13593;BME280;6867;50.998;4.250;2023-05-24T12:58:15;101586.41;;;22.90;35.99
13593;BME280;6867;50.998;4.250;2023-05-24T13:00:44;101506.78;;;22.23;35.80
13593;BME280;6867;50.998;4.250;2023-05-24T13:03:14;101540.56;;;21.97;36.43
13593;BME280;6867;50.998;4.250;2023-05-24T13:05:42;101547.72;;;21.28;37.85
13593;BME280;6867;50.998;4.250;2023-05-24T13:08:10;101579.44;;;21.61;37.63
13593;BME280;6867;50.998;4.250;2023-05-24T13:10:38;101664.13;;;21.56;39.46